Time;durP1;ratioP1;P1;durP2;ratioP2;P2;SDS_P1;SDS_P2;PMS_P1;PMS_P2;Temp;Humidity;BMP_temperature;BMP_pressure;BME280_temperature;BME280_humidity;BME280_pressure;Samples;Min_cycle;Max_cycle;Signal;HPM_P1;HPM_P2
2023/02/02 00:01:56;;;;;;;7.40;2.97;;;6.40;99.90;;;;;;5032352;28;20450;-79
2023/02/02 00:04:23;;;;;;;6.80;4.53;;;6.40;99.90;;;;;;5011625;28;21176;-77
2023/02/02 00:06:49;;;;;;;6.17;3.33;;;6.50;99.90;;;;;;5032495;28;20428;-79
2023/02/02 00:09:16;;;;;;;5.80;3.47;;;6.50;99.90;;;;;;5033004;28;20506;-77
2023/02/02 00:11:43;;;;;;;8.23;4.67;;;6.40;99.90;;;;;;5018439;28;20179;-79
2023/02/02 00:14:09;;;;;;;7.57;4.60;;;6.50;99.90;;;;;;5017149;28;20957;-79
2023/02/02 00:16:37;;;;;;;9.33;4.40;;;6.50;99.90;;;;;;5031115;28;20405;-78
2023/02/02 00:19:09;;;;;;;6.93;3.80;;;6.50;99.90;;;;;;5000463;28;20191;-78
2023/02/02 00:21:36;;;;;;;7.10;3.97;;;6.50;99.90;;;;;;5040281;28;20408;-79
2023/02/02 00:24:03;;;;;;;5.93;4.93;;;6.60;99.90;;;;;;5020310;28;20425;-80
2023/02/02 00:26:29;;;;;;;8.00;5.60;;;6.80;99.90;;;;;;5033968;28;20500;-78
2023/02/02 00:28:55;;;;;;;10.10;7.20;;;6.50;99.90;;;;;;5036468;28;20464;-80
2023/02/02 00:31:21;;;;;;;9.67;6.23;;;6.60;99.90;;;;;;5021360;28;20597;-80
2023/02/02 00:33:48;;;;;;;12.00;6.50;;;6.50;99.90;;;;;;5020108;28;20464;-78
2023/02/02 00:36:15;;;;;;;10.57;6.73;;;6.50;99.90;;;;;;5035948;28;20417;-79
2023/02/02 00:38:41;;;;;;;8.40;5.77;;;6.40;99.90;;;;;;5017398;28;20657;-79
2023/02/02 00:41:07;;;;;;;12.80;6.40;;;6.50;99.90;;;;;;5033582;28;20432;-79
2023/02/02 00:43:32;;;;;;;10.13;4.47;;;6.60;99.90;;;;;;5015302;28;20332;-79
2023/02/02 00:45:58;;;;;;;6.27;3.90;;;6.70;99.90;;;;;;5027237;28;20582;-79
2023/02/02 00:48:27;;;;;;;7.80;4.57;;;6.80;99.90;;;;;;5013885;28;20582;-79
2023/02/02 00:50:52;;;;;;;7.90;4.90;;;6.50;99.90;;;;;;5039229;28;20206;-79
2023/02/02 00:53:18;;;;;;;6.17;3.63;;;6.60;99.90;;;;;;5021810;28;20423;-79
2023/02/02 00:55:44;;;;;;;8.80;3.90;;;6.70;99.90;;;;;;5038649;28;20202;-77
2023/02/02 00:58:10;;;;;;;7.87;3.10;;;6.70;99.90;;;;;;5020954;28;20425;-79
2023/02/02 01:00:36;;;;;;;6.10;3.30;;;6.70;99.90;;;;;;5035269;28;20187;-80
2023/02/02 01:03:03;;;;;;;4.63;3.10;;;6.70;99.90;;;;;;5025122;28;20198;-77
2023/02/02 01:05:32;;;;;;;5.10;3.00;;;6.90;99.90;;;;;;5049002;28;20467;-79
2023/02/02 01:07:58;;;;;;;6.60;3.37;;;6.80;99.90;;;;;;5046073;28;20974;-77
2023/02/02 01:10:24;;;;;;;7.60;3.00;;;6.90;99.90;;;;;;5032465;28;20560;-78
2023/02/02 01:12:49;;;;;;;4.83;2.73;;;6.90;99.90;;;;;;5044071;28;20205;-80
2023/02/02 01:15:15;;;;;;;6.10;2.40;;;6.90;99.90;;;;;;5051206;28;20228;-79
2023/02/02 01:17:41;;;;;;;6.23;2.07;;;6.90;99.90;;;;;;5046104;28;20217;-78
2023/02/02 01:20:07;;;;;;;4.37;2.40;;;6.90;99.90;;;;;;5020861;28;20217;-77
2023/02/02 01:22:33;;;;;;;5.60;2.30;;;6.80;99.90;;;;;;5048215;28;20643;-78
2023/02/02 01:24:59;;;;;;;4.77;2.67;;;6.80;99.90;;;;;;5049055;28;20530;-77
2023/02/02 01:27:25;;;;;;;7.80;2.80;;;6.80;99.90;;;;;;5014951;28;20429;-79
2023/02/02 01:29:51;;;;;;;5.30;2.47;;;7.00;99.90;;;;;;5037446;28;20459;-79
2023/02/02 01:32:16;;;;;;;7.63;2.70;;;6.80;99.90;;;;;;5045942;28;20265;-78
2023/02/02 01:34:42;;;;;;;5.23;2.57;;;6.90;99.90;;;;;;5018884;28;20277;-79
2023/02/02 01:37:08;;;;;;;6.17;2.50;;;6.80;99.90;;;;;;5018494;28;20179;-79
2023/02/02 01:39:34;;;;;;;5.27;2.87;;;7.00;99.90;;;;;;5045400;28;20557;-79
2023/02/02 01:42:00;;;;;;;8.27;2.73;;;6.90;99.90;;;;;;5018097;28;20425;-78
2023/02/02 01:45:16;;;;;;;4.20;2.77;;;6.90;99.90;;;;;;5021894;28;20255;-79
2023/02/02 01:47:52;;;;;;;5.30;2.50;;;7.00;99.90;;;;;;4983429;28;20220;-79
2023/02/02 01:50:22;;;;;;;5.13;3.30;;;6.90;99.90;;;;;;5045874;28;20471;-78
2023/02/02 01:52:50;;;;;;;8.10;3.10;;;6.90;99.90;;;;;;5053520;28;20415;-79
2023/02/02 01:55:20;;;;;;;7.60;4.13;;;7.00;99.90;;;;;;5039311;28;20445;-77
2023/02/02 01:57:49;;;;;;;7.50;4.90;;;6.90;99.90;;;;;;5051400;28;20412;-78
2023/02/02 02:00:17;;;;;;;10.70;5.03;;;7.00;99.90;;;;;;5050887;28;20417;-79
2023/02/02 02:02:47;;;;;;;13.20;6.20;;;7.10;99.90;;;;;;5021834;28;20484;-79
2023/02/02 02:05:17;;;;;;;12.57;5.40;;;7.00;99.90;;;;;;5020367;28;21037;-78
2023/02/02 02:07:44;;;;;;;14.07;5.80;;;7.10;99.90;;;;;;5047905;28;20439;-79
2023/02/02 02:10:10;;;;;;;12.43;6.50;;;7.10;99.90;;;;;;5046639;28;20891;-78
2023/02/02 02:12:36;;;;;;;12.00;7.60;;;7.10;99.90;;;;;;5047934;28;20477;-79
2023/02/02 02:18:23;;;;;;;16.87;8.00;;;7.10;99.90;;;;;;5016105;28;20251;-79
2023/02/02 02:27:19;;;;;;;19.53;8.30;;;7.10;99.90;;;;;;5008703;28;20778;-79
2023/02/02 02:30:23;;;;;;;16.47;7.83;;;7.40;99.90;;;;;;4997394;28;20461;-79
2023/02/02 02:33:16;;;;;;;12.67;7.20;;;7.10;99.90;;;;;;4963624;28;20437;-78
2023/02/02 02:36:02;;;;;;;16.53;8.43;;;7.10;99.90;;;;;;5000871;28;20440;-78
2023/02/02 02:38:36;;;;;;;15.67;8.20;;;7.20;99.90;;;;;;5034547;28;20409;-79
2023/02/02 02:41:18;;;;;;;22.50;8.20;;;7.30;99.90;;;;;;5035030;28;20417;-79
2023/02/02 02:44:08;;;;;;;14.30;8.50;;;7.20;99.90;;;;;;5034370;28;20418;-79
2023/02/02 02:46:35;;;;;;;19.13;10.27;;;7.30;99.90;;;;;;5035121;28;20480;-78
2023/02/02 02:49:01;;;;;;;17.03;8.83;;;7.10;99.90;;;;;;5034316;28;20764;-79
2023/02/02 02:51:45;;;;;;;15.10;8.33;;;7.30;99.90;;;;;;5034959;28;20428;-79
2023/02/02 02:54:14;;;;;;;11.23;6.93;;;7.20;99.90;;;;;;5016731;28;20432;-79
2023/02/02 02:56:45;;;;;;;13.50;6.83;;;7.20;99.90;;;;;;5017456;28;20425;-78
2023/02/02 02:59:46;;;;;;;13.23;6.90;;;7.30;99.90;;;;;;5034577;28;20413;-79
2023/02/02 03:02:49;;;;;;;15.70;6.37;;;7.20;99.90;;;;;;5017184;28;20467;-79
2023/02/02 03:05:37;;;;;;;12.07;5.53;;;7.30;99.90;;;;;;5034063;28;20449;-79
2023/02/02 03:08:08;;;;;;;11.40;5.50;;;7.20;99.90;;;;;;5033573;28;20467;-79
2023/02/02 03:10:35;;;;;;;18.37;6.07;;;7.30;99.90;;;;;;5011921;28;20467;-79
2023/02/02 03:13:05;;;;;;;12.33;7.30;;;7.20;99.90;;;;;;5029618;28;20413;-79
2023/02/02 03:15:31;;;;;;;13.13;5.60;;;7.30;99.90;;;;;;5029700;28;20456;-80
2023/02/02 03:17:57;;;;;;;6.53;3.33;;;7.20;99.90;;;;;;5011845;28;20416;-80
2023/02/02 03:20:22;;;;;;;9.63;3.93;;;7.20;99.90;;;;;;5029501;28;20413;-79
2023/02/02 03:22:48;;;;;;;10.33;3.87;;;7.20;99.90;;;;;;5029495;28;20437;-79
2023/02/02 03:25:15;;;;;;;9.20;5.50;;;7.20;99.90;;;;;;5029358;28;20678;-79
2023/02/02 03:27:41;;;;;;;8.80;3.30;;;7.20;99.90;;;;;;5011670;28;20244;-79
2023/02/02 03:30:09;;;;;;;10.23;2.73;;;7.30;99.90;;;;;;5011594;28;20496;-79
2023/02/02 03:32:36;;;;;;;11.33;3.47;;;7.20;99.90;;;;;;5011691;28;20440;-79
2023/02/02 03:35:02;;;;;;;10.50;2.40;;;7.40;99.90;;;;;;5011402;28;20460;-78
2023/02/02 03:37:27;;;;;;;6.47;2.90;;;7.10;99.90;;;;;;5029160;28;20857;-79
2023/02/02 03:39:53;;;;;;;7.63;2.97;;;7.20;99.90;;;;;;5029066;28;20209;-79
2023/02/02 03:42:19;;;;;;;8.20;3.00;;;7.10;99.90;;;;;;5011539;28;20552;-80
2023/02/02 03:44:44;;;;;;;6.13;2.60;;;7.20;99.90;;;;;;5029076;28;20206;-80
2023/02/02 03:47:10;;;;;;;3.50;2.30;;;7.20;99.90;;;;;;5028941;28;20743;-79
2023/02/02 03:49:35;;;;;;;3.30;2.67;;;7.20;99.90;;;;;;5011569;28;20266;-79
2023/02/02 03:52:03;;;;;;;6.50;2.57;;;7.30;99.90;;;;;;5029557;28;20202;-79
2023/02/02 03:54:30;;;;;;;7.43;3.27;;;7.20;99.90;;;;;;5011455;28;20217;-79
2023/02/02 03:56:56;;;;;;;4.90;2.57;;;7.40;99.90;;;;;;5030317;28;20445;-79
2023/02/02 03:59:21;;;;;;;7.00;3.47;;;7.30;99.90;;;;;;5011529;28;20437;-79
2023/02/02 04:01:47;;;;;;;7.77;3.70;;;7.20;99.90;;;;;;5011114;28;20431;-79
2023/02/02 04:04:12;;;;;;;9.60;4.27;;;7.20;99.90;;;;;;5028662;28;20581;-79
2023/02/02 04:06:38;;;;;;;7.47;4.50;;;7.40;99.90;;;;;;5029085;28;20190;-79
2023/02/02 04:09:04;;;;;;;6.30;4.23;;;7.20;99.90;;;;;;5028962;28;20224;-79
2023/02/02 04:11:29;;;;;;;11.07;4.10;;;7.20;99.90;;;;;;5029197;28;20191;-79
2023/02/02 04:13:55;;;;;;;9.40;5.50;;;7.30;99.90;;;;;;5011879;28;20205;-79
2023/02/02 04:16:21;;;;;;;11.17;7.90;;;7.30;99.90;;;;;;5030269;28;20221;-79
2023/02/02 04:18:46;;;;;;;9.30;6.93;;;7.30;99.90;;;;;;5029138;28;20523;-77
2023/02/02 04:21:12;;;;;;;8.03;6.53;;;7.20;99.90;;;;;;5028924;28;20183;-79
2023/02/02 04:23:37;;;;;;;7.73;5.60;;;7.10;99.90;;;;;;5028633;28;20186;-79
2023/02/02 04:26:04;;;;;;;11.83;6.00;;;7.20;99.90;;;;;;5028756;28;20612;-79
2023/02/02 04:28:30;;;;;;;9.57;6.90;;;7.20;99.90;;;;;;4994579;28;20186;-79
2023/02/02 04:30:56;;;;;;;12.37;7.63;;;7.20;99.90;;;;;;5010813;28;20548;-79
2023/02/02 04:33:24;;;;;;;11.53;8.13;;;7.20;99.90;;;;;;5023989;28;20457;-79
2023/02/02 04:35:50;;;;;;;11.40;8.87;;;7.10;99.90;;;;;;5029132;28;20449;-79
2023/02/02 04:38:16;;;;;;;16.40;10.77;;;7.20;99.90;;;;;;5028702;28;20539;-79
2023/02/02 04:40:43;;;;;;;18.77;13.53;;;7.20;99.90;;;;;;5011999;28;20413;-80
2023/02/02 04:43:09;;;;;;;24.13;15.37;;;7.30;99.90;;;;;;5029927;28;20174;-80
2023/02/02 04:45:35;;;;;;;25.20;17.53;;;7.30;99.90;;;;;;5028657;28;20437;-79
2023/02/02 04:48:01;;;;;;;26.37;17.23;;;7.40;99.90;;;;;;5028313;28;20424;-79
2023/02/02 04:50:27;;;;;;;28.27;16.63;;;7.30;99.90;;;;;;5028519;28;20617;-79
2023/02/02 04:52:53;;;;;;;26.87;17.10;;;7.40;99.90;;;;;;5028382;28;21004;-79
2023/02/02 04:55:18;;;;;;;23.13;14.53;;;7.30;99.90;;;;;;5011125;28;20512;-79
2023/02/02 04:57:44;;;;;;;22.53;12.50;;;7.30;99.90;;;;;;5010585;28;20186;-78
2023/02/02 05:00:11;;;;;;;19.43;12.47;;;7.40;99.90;;;;;;5028391;28;20179;-80
2023/02/02 05:02:37;;;;;;;18.07;9.97;;;7.30;99.90;;;;;;5010980;28;20701;-79
2023/02/02 05:05:05;;;;;;;14.50;9.90;;;7.50;99.90;;;;;;5009923;28;20542;-79
2023/02/02 05:07:30;;;;;;;17.57;9.27;;;7.40;99.90;;;;;;5028297;28;20420;-79
2023/02/02 05:09:56;;;;;;;15.37;8.90;;;7.40;99.90;;;;;;5010703;28;20453;-79
2023/02/02 05:12:22;;;;;;;22.10;8.97;;;7.40;99.90;;;;;;5029750;28;20185;-78
2023/02/02 05:14:47;;;;;;;19.30;8.73;;;7.50;99.90;;;;;;5014001;28;20269;-79
2023/02/02 05:17:13;;;;;;;20.60;8.53;;;7.50;99.90;;;;;;5031620;28;20269;-79
2023/02/02 05:19:40;;;;;;;13.43;7.97;;;7.30;99.90;;;;;;5014034;28;20210;-79
2023/02/02 05:22:06;;;;;;;22.37;8.33;;;7.30;99.90;;;;;;5031825;28;20432;-78
2023/02/02 05:24:31;;;;;;;16.90;8.90;;;7.40;99.90;;;;;;5031387;28;20436;-79
2023/02/02 05:26:59;;;;;;;12.30;7.53;;;7.40;99.90;;;;;;5013634;28;20179;-78
2023/02/02 05:29:26;;;;;;;21.27;8.20;;;7.50;99.90;;;;;;5031349;28;20597;-78
2023/02/02 05:31:51;;;;;;;14.83;7.40;;;7.50;99.90;;;;;;5031613;28;20754;-79
2023/02/02 05:34:17;;;;;;;19.43;8.03;;;7.40;99.90;;;;;;5027849;28;20519;-79
2023/02/02 05:36:43;;;;;;;12.77;6.77;;;7.40;99.90;;;;;;4998207;28;20273;-78
2023/02/02 05:39:09;;;;;;;20.30;8.57;;;7.50;99.90;;;;;;5013532;28;20240;-79
2023/02/02 05:41:35;;;;;;;21.03;8.30;;;7.60;99.90;;;;;;5031225;28;20198;-79
2023/02/02 05:44:01;;;;;;;16.90;8.30;;;7.40;99.90;;;;;;5031221;28;20480;-79
2023/02/02 05:46:27;;;;;;;14.87;7.13;;;7.50;99.90;;;;;;5031416;28;20616;-78
2023/02/02 05:48:52;;;;;;;16.27;7.70;;;7.40;99.90;;;;;;5031517;28;20412;-79
2023/02/02 05:51:22;;;;;;;21.07;8.40;;;7.40;99.90;;;;;;5029051;28;20479;-78
2023/02/02 05:53:48;;;;;;;23.30;7.37;;;7.50;99.90;;;;;;5037787;28;20653;-77
2023/02/02 05:56:14;;;;;;;19.17;7.63;;;7.50;99.90;;;;;;5012501;28;20413;-77
2023/02/02 05:58:41;;;;;;;15.37;7.50;;;7.50;99.90;;;;;;5012751;28;20183;-77
2023/02/02 06:01:07;;;;;;;13.73;7.87;;;7.50;99.90;;;;;;5011452;28;20473;-77
2023/02/02 06:03:33;;;;;;;12.60;6.70;;;7.70;99.90;;;;;;5015434;28;20930;-77
2023/02/02 06:05:59;;;;;;;19.67;8.20;;;7.60;99.90;;;;;;5040736;28;20509;-79
2023/02/02 06:08:24;;;;;;;15.30;7.93;;;7.40;99.90;;;;;;5013503;28;20204;-79
2023/02/02 06:10:50;;;;;;;22.40;7.60;;;7.40;99.90;;;;;;5015197;28;20472;-79
2023/02/02 06:13:16;;;;;;;13.57;9.23;;;7.40;99.90;;;;;;5032822;28;20253;-80
2023/02/02 06:15:42;;;;;;;13.37;8.57;;;7.40;99.90;;;;;;5016092;28;20199;-79
2023/02/02 06:18:08;;;;;;;15.30;7.80;;;7.50;99.90;;;;;;5033084;28;20175;-79
2023/02/02 06:20:34;;;;;;;20.23;8.27;;;7.40;99.90;;;;;;5032963;28;20883;-79
2023/02/02 06:23:00;;;;;;;14.30;9.63;;;7.40;99.90;;;;;;5015363;28;20705;-79
2023/02/02 06:25:27;;;;;;;19.07;8.13;;;7.40;99.90;;;;;;5032517;28;20496;-79
2023/02/02 06:28:00;;;;;;;15.13;9.30;;;7.50;99.90;;;;;;5032602;28;20388;-79
2023/02/02 06:30:26;;;;;;;14.13;7.60;;;7.40;99.90;;;;;;5015143;28;20464;-79
2023/02/02 06:32:52;;;;;;;18.80;8.70;;;7.60;99.90;;;;;;5023508;28;20495;-79
2023/02/02 06:35:18;;;;;;;14.83;8.13;;;7.60;99.90;;;;;;5043091;28;20433;-79
2023/02/02 06:37:44;;;;;;;15.00;8.60;;;7.40;99.90;;;;;;5033459;28;20427;-79
2023/02/02 06:40:12;;;;;;;17.83;8.13;;;7.40;99.90;;;;;;5036434;28;20562;-79
2023/02/02 06:42:38;;;;;;;16.87;8.20;;;7.60;99.90;;;;;;5000754;28;20802;-79
2023/02/02 06:45:04;;;;;;;18.53;8.67;;;7.50;99.90;;;;;;5029158;28;20440;-79
2023/02/02 06:47:32;;;;;;;19.00;8.70;;;7.50;99.90;;;;;;5052306;28;20443;-80
2023/02/02 06:49:57;;;;;;;11.70;6.80;;;7.50;99.90;;;;;;5034904;28;20460;-80
2023/02/02 06:52:23;;;;;;;13.27;7.67;;;7.80;99.90;;;;;;5035267;28;20829;-80
2023/02/02 06:54:49;;;;;;;15.50;7.87;;;7.60;99.90;;;;;;5053015;28;20201;-79
2023/02/02 06:57:15;;;;;;;15.30;8.13;;;7.50;99.90;;;;;;5027508;28;20189;-79
2023/02/02 06:59:40;;;;;;;16.97;9.03;;;7.40;99.90;;;;;;5038938;28;20425;-80
2023/02/02 07:02:10;;;;;;;16.00;7.23;;;7.50;99.90;;;;;;5039059;28;20784;-79
2023/02/02 07:04:36;;;;;;;13.47;7.97;;;7.40;99.90;;;;;;5018898;28;20221;-79
2023/02/02 07:07:01;;;;;;;22.87;8.90;;;7.60;99.90;;;;;;5035314;28;20433;-80
2023/02/02 07:09:27;;;;;;;16.37;7.73;;;7.50;99.90;;;;;;4998877;28;20202;-80
2023/02/02 07:11:53;;;;;;;12.90;8.07;;;7.40;99.90;;;;;;5015780;28;20655;-80
2023/02/02 07:14:18;;;;;;;15.10;8.87;;;7.30;99.90;;;;;;5035545;28;20256;-80
2023/02/02 07:16:44;;;;;;;18.40;9.60;;;7.50;99.90;;;;;;5027320;28;20205;-80
2023/02/02 07:19:09;;;;;;;17.70;9.80;;;7.60;99.90;;;;;;5016823;28;20526;-80
2023/02/02 07:21:35;;;;;;;19.40;9.70;;;7.40;99.90;;;;;;5018370;28;20181;-80
2023/02/02 07:24:02;;;;;;;17.30;9.67;;;7.50;99.90;;;;;;5043185;28;20293;-79
2023/02/02 07:26:28;;;;;;;16.20;9.17;;;7.70;99.90;;;;;;5014939;28;20228;-79
2023/02/02 07:28:54;;;;;;;18.33;9.43;;;7.50;99.90;;;;;;5012717;28;20785;-79
2023/02/02 07:31:25;;;;;;;23.43;8.63;;;7.40;99.90;;;;;;5030177;28;20216;-79
2023/02/02 07:33:51;;;;;;;14.57;9.23;;;7.50;99.90;;;;;;5025355;28;20413;-80
2023/02/02 07:36:18;;;;;;;18.53;8.77;;;7.50;99.90;;;;;;5029480;28;20542;-80
2023/02/02 07:38:46;;;;;;;17.13;8.73;;;7.50;99.90;;;;;;5029303;28;20432;-79
2023/02/02 07:41:13;;;;;;;14.43;8.57;;;7.50;99.90;;;;;;4994022;28;20471;-79
2023/02/02 07:43:39;;;;;;;17.00;9.10;;;7.40;99.90;;;;;;5013487;28;20519;-79
2023/02/02 07:46:07;;;;;;;17.40;9.77;;;7.50;99.90;;;;;;5032127;28;20925;-79
2023/02/02 07:48:33;;;;;;;14.07;8.47;;;7.60;99.90;;;;;;5013230;28;20210;-79
2023/02/02 07:51:00;;;;;;;19.60;8.97;;;7.40;99.90;;;;;;5012044;28;20456;-79
2023/02/02 07:53:27;;;;;;;24.87;9.70;;;7.70;99.90;;;;;;5031100;28;20491;-79
2023/02/02 07:55:53;;;;;;;13.43;9.57;;;7.80;99.90;;;;;;5031396;28;20779;-79
2023/02/02 07:58:18;;;;;;;15.33;8.73;;;7.60;99.90;;;;;;5016151;28;20427;-79
2023/02/02 08:00:44;;;;;;;19.67;8.53;;;7.70;99.90;;;;;;5029406;28;20556;-80
2023/02/02 08:03:11;;;;;;;18.80;10.23;;;7.80;99.90;;;;;;5013198;28;20182;-79
2023/02/02 08:05:37;;;;;;;15.20;9.53;;;7.60;99.90;;;;;;5013117;28;20217;-79
2023/02/02 08:08:03;;;;;;;23.80;10.60;;;7.60;99.90;;;;;;5013091;28;20417;-80
2023/02/02 08:10:28;;;;;;;18.80;10.37;;;7.60;99.90;;;;;;5013680;28;20457;-80
2023/02/02 08:12:54;;;;;;;17.00;10.53;;;7.60;99.90;;;;;;5031335;28;20170;-79
2023/02/02 08:15:20;;;;;;;14.37;8.70;;;7.60;99.90;;;;;;5030719;28;20248;-80
2023/02/02 08:17:48;;;;;;;18.50;9.67;;;7.70;99.90;;;;;;5031242;28;20171;-79
2023/02/02 08:20:14;;;;;;;19.60;10.50;;;7.60;99.90;;;;;;5031583;28;20717;-78
2023/02/02 08:22:40;;;;;;;15.17;8.80;;;7.80;99.90;;;;;;5013446;28;20445;-79
2023/02/02 08:25:07;;;;;;;22.97;9.33;;;7.80;99.90;;;;;;5014150;28;20961;-79
2023/02/02 08:27:32;;;;;;;18.10;9.87;;;7.60;99.90;;;;;;5031424;28;20409;-79
2023/02/02 08:29:58;;;;;;;17.47;9.90;;;7.60;99.90;;;;;;5030953;28;21182;-80
2023/02/02 08:32:24;;;;;;;13.13;8.73;;;7.60;99.90;;;;;;5031042;28;20175;-80
2023/02/02 08:34:50;;;;;;;15.73;9.30;;;7.60;99.90;;;;;;5013279;28;20285;-80
2023/02/02 08:37:16;;;;;;;14.20;8.90;;;7.60;99.90;;;;;;5031782;28;20181;-80
2023/02/02 08:39:43;;;;;;;17.90;9.77;;;7.60;99.90;;;;;;5030712;28;20423;-80
2023/02/02 08:42:08;;;;;;;18.27;9.77;;;7.70;99.90;;;;;;5034831;28;20475;-79
2023/02/02 08:44:34;;;;;;;17.50;8.90;;;7.60;99.90;;;;;;5044913;28;20449;-80
2023/02/02 08:46:59;;;;;;;17.90;9.03;;;7.60;99.90;;;;;;5022627;28;20235;-80
2023/02/02 08:49:25;;;;;;;17.70;10.90;;;7.60;99.90;;;;;;5026616;28;20201;-79
2023/02/02 08:51:51;;;;;;;16.20;9.33;;;7.60;99.90;;;;;;5042828;28;20171;-80
2023/02/02 08:54:16;;;;;;;12.77;9.77;;;7.60;99.90;;;;;;5021112;28;20201;-80
2023/02/02 08:56:42;;;;;;;13.27;9.47;;;7.70;99.90;;;;;;5028968;28;20208;-79
2023/02/02 08:59:08;;;;;;;17.40;10.00;;;7.80;99.90;;;;;;5036015;28;20178;-80
2023/02/02 09:01:34;;;;;;;14.10;9.80;;;7.70;99.90;;;;;;5031988;28;20187;-80
2023/02/02 09:04:12;;;;;;;15.53;10.00;;;7.80;99.90;;;;;;5037048;28;20218;-81
2023/02/02 09:06:39;;;;;;;11.23;9.80;;;7.70;99.90;;;;;;5018521;28;20413;-77
2023/02/02 09:09:07;;;;;;;17.40;10.43;;;7.60;99.90;;;;;;5038594;28;20415;-79
2023/02/02 09:11:34;;;;;;;16.07;10.97;;;7.60;99.90;;;;;;5055933;28;20847;-78
2023/02/02 09:14:01;;;;;;;14.70;9.30;;;7.70;99.90;;;;;;5048298;28;20436;-80
2023/02/02 09:16:28;;;;;;;13.53;10.67;;;7.60;99.90;;;;;;5037611;28;20940;-79
2023/02/02 09:18:54;;;;;;;16.27;10.73;;;7.60;99.90;;;;;;5057183;28;20403;-79
2023/02/02 09:21:20;;;;;;;14.87;11.53;;;7.50;99.90;;;;;;5056752;28;21193;-80
2023/02/02 09:23:48;;;;;;;15.47;12.00;;;7.90;99.90;;;;;;5037727;28;20419;-79
2023/02/02 09:26:17;;;;;;;19.43;12.17;;;7.70;99.90;;;;;;5034168;28;20491;-80
2023/02/02 09:28:45;;;;;;;12.80;10.67;;;7.70;99.90;;;;;;5036886;28;20987;-80
2023/02/02 09:31:11;;;;;;;17.57;12.33;;;7.90;99.90;;;;;;5056475;28;20966;-79
2023/02/02 09:33:37;;;;;;;14.60;10.90;;;7.40;99.90;;;;;;5050792;28;20424;-77
2023/02/02 09:36:07;;;;;;;17.27;12.50;;;7.70;99.90;;;;;;5056870;28;20412;-78
2023/02/02 09:38:33;;;;;;;18.30;11.93;;;7.70;99.90;;;;;;5036002;28;20410;-80
2023/02/02 09:40:59;;;;;;;16.00;11.33;;;7.70;99.90;;;;;;5037073;28;20512;-80
2023/02/02 09:43:49;;;;;;;15.67;13.57;;;7.80;99.90;;;;;;5036412;28;20428;-79
2023/02/02 09:46:29;;;;;;;18.77;12.73;;;7.70;99.90;;;;;;5036955;28;20413;-80
2023/02/02 09:49:00;;;;;;;17.63;12.77;;;7.70;99.90;;;;;;5018640;28;20429;-80
2023/02/02 09:51:34;;;;;;;20.27;13.50;;;7.60;99.90;;;;;;5018787;28;20987;-77
2023/02/02 09:54:43;;;;;;;18.47;12.70;;;7.60;99.90;;;;;;5002506;28;20472;-77
2023/02/02 09:57:21;;;;;;;17.47;13.40;;;7.70;99.90;;;;;;4936048;29;20469;-80
2023/02/02 09:59:49;;;;;;;17.60;13.60;;;7.40;99.90;;;;;;4939114;29;20512;-79
2023/02/02 10:02:22;;;;;;;18.30;12.70;;;8.00;99.90;;;;;;4970911;28;20909;-80
2023/02/02 10:04:53;;;;;;;20.00;14.20;;;7.80;99.90;;;;;;5037439;28;20461;-78
2023/02/02 10:07:31;;;;;;;18.50;14.00;;;7.80;99.90;;;;;;5023890;28;20471;-80
2023/02/02 10:10:09;;;;;;;18.40;13.50;;;7.80;99.90;;;;;;5035492;28;20456;-79
2023/02/02 10:12:48;;;;;;;21.53;14.30;;;7.80;99.90;;;;;;5018344;28;20428;-79
2023/02/02 10:15:38;;;;;;;18.40;14.30;;;7.70;99.90;;;;;;5035270;28;20793;-80
2023/02/02 10:18:22;;;;;;;21.90;15.10;;;7.70;99.90;;;;;;5035153;28;20402;-79
2023/02/02 10:21:14;;;;;;;25.10;17.40;;;7.70;99.90;;;;;;5035326;28;20420;-79
2023/02/02 10:23:44;;;;;;;27.90;18.30;;;7.70;99.90;;;;;;5035199;28;20413;-79
2023/02/02 10:26:16;;;;;;;27.47;17.80;;;8.00;99.90;;;;;;5035544;28;20441;-80
2023/02/02 10:29:07;;;;;;;25.70;19.37;;;7.80;99.90;;;;;;5000350;28;20475;-79
2023/02/02 10:31:45;;;;;;;30.50;20.27;;;7.80;99.90;;;;;;5017241;28;20847;-79
2023/02/02 10:34:29;;;;;;;28.23;20.93;;;7.70;99.90;;;;;;5034832;28;20571;-78
2023/02/02 10:37:32;;;;;;;32.17;21.37;;;7.80;99.90;;;;;;5016870;28;20559;-79
2023/02/02 10:40:25;;;;;;;35.53;23.07;;;7.80;99.90;;;;;;5034277;28;20421;-80
2023/02/02 10:46:04;;;;;;;25.17;16.80;;;7.70;99.90;;;;;;5034549;28;20408;-77
2023/02/02 10:48:34;;;;;;;27.37;18.60;;;7.80;99.90;;;;;;5034424;28;20409;-79
2023/02/02 10:51:23;;;;;;;24.30;18.33;;;8.00;99.90;;;;;;5034577;28;20456;-79
2023/02/02 10:53:55;;;;;;;24.20;17.43;;;7.80;99.90;;;;;;5030640;28;20413;-80
2023/02/02 10:56:39;;;;;;;25.77;16.83;;;7.90;99.90;;;;;;5000428;28;20479;-79
2023/02/02 10:59:18;;;;;;;23.67;17.00;;;7.80;99.90;;;;;;5016298;28;20425;-79
2023/02/02 11:01:44;;;;;;;24.70;17.37;;;7.90;99.90;;;;;;5034175;28;20517;-78
2023/02/02 11:06:55;;;;;;;24.80;16.40;;;7.90;99.90;;;;;;5026472;28;20421;-79
2023/02/02 11:09:25;;;;;;;25.23;17.10;;;7.90;99.90;;;;;;5015147;28;20409;-76
2023/02/02 11:11:56;;;;;;;25.77;15.67;;;7.80;99.90;;;;;;5034407;28;20420;-78
2023/02/02 11:14:42;;;;;;;20.20;14.83;;;7.80;99.90;;;;;;5021752;28;20451;-80
2023/02/02 11:17:20;;;;;;;23.13;15.00;;;7.80;99.90;;;;;;5009189;28;20425;-80
2023/02/02 11:19:46;;;;;;;27.20;15.63;;;7.80;99.90;;;;;;5034444;28;20423;-78
2023/02/02 11:22:33;;;;;;;25.57;16.20;;;7.80;99.90;;;;;;5054019;28;20427;-80
2023/02/02 11:25:06;;;;;;;24.03;15.70;;;7.80;99.90;;;;;;5053998;28;20435;-80
2023/02/02 11:27:33;;;;;;;23.60;16.43;;;7.80;99.90;;;;;;5036335;28;20424;-80
2023/02/02 11:30:10;;;;;;;25.60;16.63;;;7.80;99.90;;;;;;5036327;28;20529;-79
2023/02/02 11:32:36;;;;;;;21.00;14.23;;;7.90;99.90;;;;;;5032792;28;20483;-78
2023/02/02 11:35:17;;;;;;;23.90;14.60;;;7.50;99.90;;;;;;5034339;28;20512;-80
2023/02/02 11:38:08;;;;;;;25.00;13.80;;;7.90;99.90;;;;;;5034445;28;20997;-80
2023/02/02 11:40:44;;;;;;;21.90;14.43;;;8.00;99.90;;;;;;5033853;28;20837;-80
2023/02/02 11:43:43;;;;;;;22.13;14.30;;;7.90;99.90;;;;;;5029577;28;20429;-79
2023/02/02 11:46:14;;;;;;;23.90;14.73;;;7.90;99.90;;;;;;5012863;28;20440;-80
2023/02/02 11:48:55;;;;;;;25.47;14.73;;;7.90;99.90;;;;;;5032447;28;20402;-80
2023/02/02 11:51:23;;;;;;;24.60;13.93;;;8.00;99.90;;;;;;4999077;28;20464;-80
2023/02/02 11:53:58;;;;;;;19.40;13.73;;;8.00;99.90;;;;;;5015111;28;20428;-79
2023/02/02 11:56:25;;;;;;;24.03;13.80;;;8.00;99.90;;;;;;5020322;28;20413;-79
2023/02/02 11:58:58;;;;;;;24.17;14.53;;;7.40;99.90;;;;;;5052222;28;20908;-80
2023/02/02 12:01:31;;;;;;;21.17;14.70;;;7.90;99.90;;;;;;5038447;28;20421;-80
2023/02/02 12:04:01;;;;;;;19.77;14.43;;;7.90;99.90;;;;;;5032884;28;20825;-79
2023/02/02 12:06:37;;;;;;;26.97;14.70;;;7.70;99.90;;;;;;5032444;28;20474;-79
2023/02/02 12:09:29;;;;;;;18.57;13.90;;;8.00;99.90;;;;;;5013436;28;20448;-78
2023/02/02 12:12:17;;;;;;;20.90;13.70;;;7.70;99.90;;;;;;5009933;28;20501;-79
2023/02/02 12:15:07;;;;;;;26.00;15.40;;;8.00;99.90;;;;;;5013638;28;20421;-78
2023/02/02 12:18:20;;;;;;;21.30;14.00;;;8.00;99.90;;;;;;5015477;28;20406;-80
2023/02/02 12:20:57;;;;;;;20.37;13.20;;;8.00;99.90;;;;;;5000943;28;20413;-80
2023/02/02 12:23:44;;;;;;;19.10;13.30;;;8.00;99.90;;;;;;5036750;28;20470;-78
2023/02/02 12:26:30;;;;;;;29.00;12.53;;;8.00;99.90;;;;;;5015989;28;20951;-78
2023/02/02 12:29:34;;;;;;;20.47;11.83;;;8.00;99.90;;;;;;5057136;28;20901;-80
2023/02/02 12:32:24;;;;;;;19.03;12.00;;;8.00;99.90;;;;;;5045520;28;20428;-80
2023/02/02 12:35:35;;;;;;;16.23;9.97;;;8.00;99.90;;;;;;5017436;28;20442;-77
2023/02/02 12:38:40;;;;;;;19.03;10.70;;;8.00;99.90;;;;;;5017159;28;20414;-78
2023/02/02 12:41:12;;;;;;;21.40;10.43;;;8.00;99.90;;;;;;5000101;28;20477;-79
2023/02/02 12:43:41;;;;;;;15.03;9.90;;;8.20;99.90;;;;;;5016741;28;20501;-80
2023/02/02 12:46:34;;;;;;;22.40;10.40;;;8.00;99.90;;;;;;5000181;28;21153;-78
2023/02/02 12:49:39;;;;;;;17.80;10.07;;;8.00;99.90;;;;;;5016880;28;20472;-80
2023/02/02 12:52:33;;;;;;;12.43;8.70;;;8.00;99.90;;;;;;5050255;28;21075;-79
2023/02/02 12:55:17;;;;;;;17.73;9.90;;;8.00;99.90;;;;;;5017053;28;20469;-80
2023/02/02 12:57:58;;;;;;;20.17;9.37;;;7.80;99.90;;;;;;5000008;28;20960;-79
2023/02/02 13:00:53;;;;;;;22.90;10.17;;;8.00;99.90;;;;;;5017057;28;20410;-79
2023/02/02 13:03:47;;;;;;;14.77;9.27;;;8.10;99.90;;;;;;4999027;28;20418;-78
2023/02/02 13:06:51;;;;;;;16.67;9.53;;;8.20;99.90;;;;;;4985419;28;20955;-77
2023/02/02 13:09:24;;;;;;;12.70;9.60;;;8.10;99.90;;;;;;4939757;29;20437;-77
2023/02/02 13:12:05;;;;;;;15.20;10.07;;;8.00;99.90;;;;;;5025963;28;20448;-79
2023/02/02 13:14:43;;;;;;;22.00;10.90;;;8.00;99.90;;;;;;5036309;28;20443;-79
2023/02/02 13:17:11;;;;;;;17.90;10.60;;;7.50;99.90;;;;;;5035942;28;20422;-78
2023/02/02 13:19:47;;;;;;;17.40;9.57;;;7.80;99.90;;;;;;5036273;28;20430;-77
2023/02/02 13:22:18;;;;;;;18.63;10.87;;;8.00;99.90;;;;;;5003197;28;20428;-78